Time,TemperatureF,DewpointF,PressureIn,WindDirection,WindDirectionDegrees,WindSpeedMPH,WindSpeedGustMPH,Humidity,HourlyPrecipIn,Conditions,Clouds,dailyrainin,SolarRadiationWatts/m^2,SoftwareType,DateUTC
2013-12-04 00:02:00,59.2,55.3,29.57,North,0,0.0,0.0,87,0.00,,---,0.00,0.00,VWS V14.00,2013-12-04 06:02:00,
2013-12-04 00:10:00,59.2,55.0,29.57,North,0,0.0,0.0,86,0.00,,---,0.00,0.00,VWS V14.00,2013-12-04 06:10:00,
2013-12-04 00:18:00,59.1,54.9,29.57,North,0,0.0,0.0,86,0.00,,---,0.00,0.00,VWS V14.00,2013-12-04 06:18:00,
2013-12-04 00:26:00,59.0,54.8,29.57,North,0,0.0,0.0,86,0.00,,---,0.00,0.00,VWS V14.00,2013-12-04 06:26:00,
2013-12-04 00:30:00,58.9,54.7,29.57,North,0,0.0,0.0,86,0.00,,---,0.00,0.00,VWS V14.00,2013-12-04 06:30:00,
2013-12-04 00:38:00,58.8,54.6,29.57,North,0,0.0,0.0,86,0.00,,---,0.00,0.00,VWS V14.00,2013-12-04 06:38:00,
2013-12-04 00:46:00,58.7,54.5,29.57,North,0,0.0,0.0,86,0.00,,---,0.00,0.00,VWS V14.00,2013-12-04 06:46:00,
2013-12-04 00:54:00,58.6,54.4,29.57,North,0,0.0,0.0,86,0.00,,---,0.00,0.00,VWS V14.00,2013-12-04 06:54:00,
2013-12-04 01:02:00,58.6,54.8,29.56,North,0,0.0,0.0,87,0.00,,---,0.00,0.00,VWS V14.00,2013-12-04 07:02:00,
2013-12-04 01:10:00,58.6,54.8,29.56,North,0,0.0,0.0,87,0.00,,---,0.00,0.00,VWS V14.00,2013-12-04 07:10:00,
2013-12-04 01:19:00,58.7,54.8,29.56,North,0,0.0,0.0,87,0.00,,---,0.00,0.00,VWS V14.00,2013-12-04 07:19:00,
2013-12-04 01:26:00,58.7,55.2,29.56,North,0,0.0,0.0,88,0.00,,---,0.00,0.00,VWS V14.00,2013-12-04 07:26:00,
2013-12-04 01:31:00,58.7,55.2,29.56,North,0,0.0,0.0,88,0.00,,---,0.00,0.00,VWS V14.00,2013-12-04 07:31:00,
2013-12-04 01:39:00,58.8,55.3,29.56,North,0,0.0,0.0,88,0.00,,---,0.00,0.00,VWS V14.00,2013-12-04 07:39:00,
2013-12-04 01:47:00,58.9,55.7,29.56,North,0,0.0,0.0,89,0.00,,---,0.00,0.00,VWS V14.00,2013-12-04 07:47:00,
2013-12-04 01:55:00,59.0,55.8,29.57,North,0,0.0,0.0,89,0.00,,---,0.00,0.00,VWS V14.00,2013-12-04 07:55:00,
2013-12-04 02:03:00,59.1,55.9,29.57,North,0,0.0,0.0,89,0.00,,---,0.00,0.00,VWS V14.00,2013-12-04 08:03:00,
2013-12-04 02:11:00,59.2,56.0,29.57,North,0,0.0,0.0,89,0.00,,---,0.00,0.00,VWS V14.00,2013-12-04 08:11:00,
2013-12-04 02:19:00,59.3,56.1,29.57,North,0,0.0,0.0,89,0.00,,---,0.00,0.00,VWS V14.00,2013-12-04 08:19:00,
2013-12-04 02:26:00,59.3,56.1,29.57,North,0,0.0,0.0,89,0.00,,---,0.00,0.00,VWS V14.00,2013-12-04 08:26:00,
2013-12-04 02:31:00,59.3,55.8,29.57,North,0,0.0,0.0,88,0.00,,---,0.00,0.00,VWS V14.00,2013-12-04 08:31:00,
2013-12-04 02:39:00,59.3,56.1,29.57,North,0,0.0,0.0,89,0.00,,---,0.00,0.00,VWS V14.00,2013-12-04 08:39:00,
2013-12-04 02:47:00,59.4,56.2,29.57,North,0,0.0,0.0,89,0.00,,---,0.00,0.00,VWS V14.00,2013-12-04 08:47:00,
2013-12-04 02:56:00,59.4,56.2,29.57,North,0,0.0,0.0,89,0.00,,---,0.00,0.00,VWS V14.00,2013-12-04 08:56:00,
2013-12-04 03:04:00,59.5,56.3,29.57,North,0,0.0,0.0,89,0.00,,---,0.00,0.00,VWS V14.00,2013-12-04 09:04:00,
2013-12-04 03:12:00,59.5,56.3,29.57,North,0,0.0,0.0,89,0.00,,---,0.00,0.00,VWS V14.00,2013-12-04 09:12:00,
2013-12-04 03:20:00,59.6,56.4,29.57,North,0,0.0,0.0,89,0.00,,---,0.00,0.00,VWS V14.00,2013-12-04 09:20:00,
2013-12-04 03:26:00,59.6,56.7,29.57,North,0,0.0,0.0,90,0.00,,---,0.00,0.00,VWS V14.00,2013-12-04 09:26:00,
2013-12-04 03:32:00,59.6,56.4,29.57,North,0,0.0,0.0,89,0.00,,---,0.00,0.00,VWS V14.00,2013-12-04 09:32:00,
2013-12-04 03:40:00,59.6,56.7,29.57,North,0,0.0,0.0,90,0.00,,---,0.00,0.00,VWS V14.00,2013-12-04 09:40:00,
2013-12-04 03:48:00,59.7,56.8,29.57,North,0,0.0,0.0,90,0.00,,---,0.00,0.00,VWS V14.00,2013-12-04 09:48:00,
2013-12-04 03:56:00,59.8,56.9,29.58,North,0,0.0,0.0,90,0.00,,---,0.00,0.00,VWS V14.00,2013-12-04 09:56:00,
2013-12-04 04:04:00,59.8,56.9,29.58,North,0,0.0,0.0,90,0.00,,---,0.00,0.00,VWS V14.00,2013-12-04 10:04:00,
2013-12-04 04:12:00,59.9,57.3,29.58,North,0,0.0,0.0,91,0.00,,---,0.00,0.00,VWS V14.00,2013-12-04 10:12:00,
2013-12-04 04:20:00,59.9,57.0,29.58,North,0,0.0,0.0,90,0.00,,---,0.00,0.00,VWS V14.00,2013-12-04 10:20:00,
2013-12-04 04:26:00,59.9,57.0,29.58,North,0,0.0,0.0,90,0.00,,---,0.00,0.00,VWS V14.00,2013-12-04 10:26:00,
2013-12-04 04:32:00,59.9,57.0,29.58,North,0,0.0,0.0,90,0.00,,---,0.00,0.00,VWS V14.00,2013-12-04 10:32:00,
2013-12-04 04:41:00,59.9,57.0,29.58,North,0,0.0,0.0,90,0.00,,---,0.00,0.00,VWS V14.00,2013-12-04 10:41:00,
2013-12-04 04:49:00,59.9,57.0,29.58,North,0,0.0,0.0,90,0.00,,---,0.00,0.00,VWS V14.00,2013-12-04 10:49:00,
2013-12-04 04:56:00,59.9,57.0,29.59,North,0,0.0,0.0,90,0.00,,---,0.00,0.00,VWS V14.00,2013-12-04 10:56:00,
2013-12-04 05:01:00,59.9,57.0,29.59,North,0,0.0,0.0,90,0.00,,---,0.00,0.00,VWS V14.00,2013-12-04 11:01:00,
2013-12-04 05:09:00,59.8,56.9,29.59,North,0,0.0,0.0,90,0.00,,---,0.00,0.00,VWS V14.00,2013-12-04 11:09:00,
2013-12-04 05:17:00,59.8,56.9,29.60,North,0,0.0,0.0,90,0.00,,---,0.00,0.00,VWS V14.00,2013-12-04 11:17:00,
2013-12-04 05:25:00,59.7,56.8,29.60,North,0,0.0,0.0,90,0.00,,---,0.00,0.00,VWS V14.00,2013-12-04 11:25:00,
2013-12-04 05:33:00,59.7,56.8,29.60,North,0,0.0,0.0,90,0.00,,---,0.00,0.00,VWS V14.00,2013-12-04 11:33:00,
2013-12-04 05:41:00,59.7,56.8,29.60,North,0,0.0,0.0,90,0.00,,---,0.00,0.00,VWS V14.00,2013-12-04 11:41:00,
2013-12-04 05:49:00,59.7,57.1,29.60,North,0,0.0,0.0,91,0.00,,---,0.00,0.00,VWS V14.00,2013-12-04 11:49:00,
2013-12-04 05:56:00,59.7,57.1,29.60,North,0,0.0,0.0,91,0.00,,---,0.00,0.00,VWS V14.00,2013-12-04 11:56:00,
2013-12-04 06:06:00,59.7,57.1,29.60,North,0,0.0,0.0,91,0.00,,---,0.00,0.00,VWS V14.00,2013-12-04 12:06:00,
2013-12-04 06:14:00,59.8,57.2,29.61,North,0,0.0,0.0,91,0.00,,---,0.00,0.00,VWS V14.00,2013-12-04 12:14:00,
2013-12-04 06:22:00,59.8,57.2,29.61,North,0,0.0,0.0,91,0.00,,---,0.00,0.00,VWS V14.00,2013-12-04 12:22:00,
2013-12-04 06:30:00,59.7,57.1,29.62,North,0,0.0,0.0,91,0.00,,---,0.00,0.00,VWS V14.00,2013-12-04 12:30:00,
2013-12-04 06:38:00,59.7,57.1,29.62,North,0,0.0,0.0,91,0.00,,---,0.00,0.00,VWS V14.00,2013-12-04 12:38:00,
2013-12-04 06:46:00,59.7,57.1,29.62,North,0,0.0,0.0,91,0.00,,---,0.00,0.00,VWS V14.00,2013-12-04 12:46:00,
2013-12-04 06:54:00,59.7,57.1,29.62,North,0,0.0,0.0,91,0.00,,---,0.00,0.00,VWS V14.00,2013-12-04 12:54:00,
2013-12-04 07:02:00,59.7,57.1,29.63,North,0,0.0,0.0,91,0.00,,---,0.00,0.00,VWS V14.00,2013-12-04 13:02:00,
2013-12-04 07:10:00,59.6,57.0,29.64,North,0,0.0,0.0,91,0.00,,---,0.00,0.00,VWS V14.00,2013-12-04 13:10:00,
2013-12-04 07:18:00,59.6,57.0,29.64,North,0,0.0,0.0,91,0.00,,---,0.00,0.00,VWS V14.00,2013-12-04 13:18:00,
2013-12-04 07:26:00,59.7,57.1,29.64,North,0,0.0,0.0,91,0.00,,---,0.00,9.00,VWS V14.00,2013-12-04 13:26:00,
2013-12-04 07:31:00,59.6,57.0,29.64,North,0,0.0,0.0,91,0.00,,---,0.00,12.00,VWS V14.00,2013-12-04 13:31:00,
2013-12-04 07:39:00,59.7,57.1,29.64,North,0,0.0,0.0,91,0.00,,---,0.00,18.00,VWS V14.00,2013-12-04 13:39:00,
2013-12-04 07:47:00,59.7,57.4,29.66,North,0,0.0,0.0,92,0.00,,---,0.00,23.00,VWS V14.00,2013-12-04 13:47:00,
2013-12-04 07:55:00,59.7,57.4,29.67,North,0,0.0,0.0,92,0.00,,---,0.00,32.00,VWS V14.00,2013-12-04 13:55:00,
2013-12-04 08:03:00,59.8,57.5,29.67,North,0,0.0,0.0,92,0.00,,---,0.00,39.00,VWS V14.00,2013-12-04 14:03:00,
2013-12-04 08:11:00,59.8,57.5,29.67,North,0,0.0,0.0,92,0.00,,---,0.00,44.00,VWS V14.00,2013-12-04 14:11:00,
2013-12-04 08:19:00,59.9,57.6,29.67,North,0,0.0,0.0,92,0.00,,---,0.00,49.00,VWS V14.00,2013-12-04 14:19:00,
2013-12-04 08:26:00,60.2,57.9,29.67,North,0,0.0,0.0,92,0.00,,---,0.00,56.00,VWS V14.00,2013-12-04 14:26:00,
2013-12-04 08:31:00,60.6,58.6,29.67,North,0,0.0,0.0,93,0.00,,---,0.00,60.00,VWS V14.00,2013-12-04 14:31:00,
2013-12-04 08:39:00,61.1,59.1,29.67,North,0,0.0,0.0,93,0.00,,---,0.00,63.00,VWS V14.00,2013-12-04 14:39:00,
2013-12-04 08:47:00,61.4,59.7,29.68,North,0,0.0,0.0,94,0.00,,---,0.00,79.00,VWS V14.00,2013-12-04 14:47:00,
2013-12-04 08:55:00,61.8,60.1,29.69,North,0,0.0,0.0,94,0.00,,---,0.00,123.00,VWS V14.00,2013-12-04 14:55:00,
2013-12-04 09:03:00,62.2,60.5,29.69,North,0,0.0,0.0,94,0.00,,---,0.00,116.00,VWS V14.00,2013-12-04 15:03:00,
2013-12-04 09:12:00,62.6,60.8,29.70,North,0,0.0,0.0,94,0.00,,---,0.00,128.00,VWS V14.00,2013-12-04 15:12:00,
2013-12-04 09:20:00,63.1,61.3,29.70,North,0,0.0,0.0,94,0.00,,---,0.00,116.00,VWS V14.00,2013-12-04 15:20:00,
2013-12-04 09:26:00,63.5,61.8,29.70,North,0,0.0,0.0,94,0.00,,---,0.00,142.00,VWS V14.00,2013-12-04 15:26:00,
2013-12-04 09:32:00,63.8,62.0,29.70,North,0,0.0,0.0,94,0.00,,---,0.00,146.00,VWS V14.00,2013-12-04 15:32:00,
2013-12-04 09:40:00,64.4,62.6,29.69,North,0,0.0,0.0,94,0.00,,---,0.00,128.00,VWS V14.00,2013-12-04 15:40:00,
2013-12-04 09:48:00,65.0,62.9,29.69,North,0,0.0,0.0,93,0.00,,---,0.00,163.00,VWS V14.00,2013-12-04 15:48:00,
2013-12-04 09:56:00,65.6,63.2,29.69,North,0,0.0,0.0,92,0.00,,---,0.00,185.00,VWS V14.00,2013-12-04 15:56:00,
2013-12-04 10:04:00,66.2,63.5,29.69,North,0,0.0,0.0,91,0.00,,---,0.00,236.00,VWS V14.00,2013-12-04 16:04:00,
2013-12-04 10:12:00,66.8,64.1,29.69,North,0,0.0,0.0,91,0.00,,---,0.00,251.00,VWS V14.00,2013-12-04 16:12:00,
2013-12-04 10:20:00,67.5,64.5,29.69,North,0,0.0,0.0,90,0.00,,---,0.00,272.00,VWS V14.00,2013-12-04 16:20:00,
2013-12-04 10:26:00,67.9,64.2,29.69,North,0,0.0,0.0,88,0.00,,---,0.00,239.00,VWS V14.00,2013-12-04 16:26:00,
2013-12-04 10:33:00,68.3,64.3,29.69,North,0,0.0,0.0,87,0.00,,---,0.00,278.00,VWS V14.00,2013-12-04 16:33:00,
2013-12-04 10:41:00,68.9,64.9,29.69,North,0,0.0,0.0,87,0.00,,---,0.00,213.00,VWS V14.00,2013-12-04 16:41:00,
2013-12-04 10:50:00,69.3,64.6,29.69,North,0,0.0,0.0,85,0.00,,---,0.00,288.00,VWS V14.00,2013-12-04 16:50:00,
2013-12-04 10:56:00,69.8,64.8,29.68,North,0,0.0,0.0,84,0.00,,---,0.00,209.00,VWS V14.00,2013-12-04 16:56:00,
2013-12-04 11:02:00,70.2,64.8,29.68,North,0,0.0,0.0,83,0.00,,---,0.00,246.00,VWS V14.00,2013-12-04 17:02:00,
2013-12-04 11:10:00,70.6,64.8,29.67,North,0,0.0,0.0,82,0.00,,---,0.00,199.00,VWS V14.00,2013-12-04 17:10:00,
2013-12-04 11:18:00,71.2,65.1,29.67,North,0,0.0,0.0,81,0.00,,---,0.00,272.00,VWS V14.00,2013-12-04 17:18:00,
2013-12-04 11:26:00,71.9,65.0,29.67,North,0,0.0,0.0,79,0.00,,---,0.00,345.00,VWS V14.00,2013-12-04 17:26:00,
2013-12-04 11:34:00,72.5,64.9,29.67,North,0,0.0,0.0,77,0.00,,---,0.00,413.00,VWS V14.00,2013-12-04 17:34:00,
2013-12-04 11:42:00,73.1,65.1,29.67,North,0,0.0,0.0,76,0.00,,---,0.00,564.00,VWS V14.00,2013-12-04 17:42:00,
2013-12-04 11:50:00,73.8,65.0,29.67,North,0,0.0,0.0,74,0.00,,---,0.00,446.00,VWS V14.00,2013-12-04 17:50:00,
2013-12-04 11:56:00,74.2,65.0,29.66,North,0,0.0,0.0,73,0.00,,---,0.00,529.00,VWS V14.00,2013-12-04 17:56:00,
2013-12-04 12:02:00,74.6,65.4,29.66,North,0,0.0,0.0,73,0.00,,---,0.00,413.00,VWS V14.00,2013-12-04 18:02:00,
2013-12-04 12:10:00,75.3,65.3,29.65,North,0,0.0,0.0,71,0.00,,---,0.00,271.00,VWS V14.00,2013-12-04 18:10:00,
2013-12-04 12:18:00,76.1,65.2,29.65,North,0,0.0,0.0,69,0.00,,---,0.00,478.00,VWS V14.00,2013-12-04 18:18:00,
2013-12-04 12:26:00,76.6,64.4,29.65,North,0,0.0,0.0,66,0.00,,---,0.00,403.00,VWS V14.00,2013-12-04 18:26:00,
2013-12-04 12:34:00,76.9,64.2,29.65,North,0,0.0,0.0,65,0.00,,---,0.00,541.00,VWS V14.00,2013-12-04 18:34:00,
2013-12-04 12:43:00,77.2,64.5,29.64,North,0,0.0,0.0,65,0.00,,---,0.00,496.00,VWS V14.00,2013-12-04 18:43:00,
2013-12-04 12:51:00,77.7,64.6,29.64,North,0,0.0,0.0,64,0.00,,---,0.00,255.00,VWS V14.00,2013-12-04 18:51:00,
2013-12-04 12:56:00,78.0,63.9,29.64,North,0,0.0,0.0,62,0.00,,---,0.00,320.00,VWS V14.00,2013-12-04 18:56:00,
2013-12-04 13:03:00,78.6,64.5,29.64,North,0,0.0,0.0,62,0.00,,---,0.00,130.00,VWS V14.00,2013-12-04 19:03:00,
2013-12-04 13:11:00,79.0,64.4,29.63,North,0,0.0,0.0,61,0.00,,---,0.00,329.00,VWS V14.00,2013-12-04 19:11:00,
2013-12-04 13:19:00,79.7,63.6,29.63,North,0,0.0,0.0,58,0.00,,---,0.00,380.00,VWS V14.00,2013-12-04 19:19:00,
2013-12-04 13:26:00,80.1,64.0,29.62,North,0,0.0,0.0,58,0.00,,---,0.00,165.00,VWS V14.00,2013-12-04 19:26:00,
2013-12-04 13:31:00,80.3,62.7,29.62,North,0,0.0,0.0,55,0.00,,---,0.00,439.00,VWS V14.00,2013-12-04 19:31:00,
2013-12-04 13:39:00,80.5,62.9,29.62,North,0,0.0,0.0,55,0.00,,---,0.00,418.00,VWS V14.00,2013-12-04 19:39:00,
2013-12-04 13:47:00,80.6,63.0,29.62,North,0,0.0,0.0,55,0.00,,---,0.00,316.00,VWS V14.00,2013-12-04 19:47:00,
2013-12-04 13:55:00,80.7,62.5,29.61,North,0,0.0,0.0,54,0.00,,---,0.00,190.00,VWS V14.00,2013-12-04 19:55:00,
2013-12-04 14:03:00,80.9,62.7,29.61,North,0,0.0,0.0,54,0.00,,---,0.00,309.00,VWS V14.00,2013-12-04 20:03:00,
2013-12-04 14:11:00,81.0,61.7,29.61,North,0,0.0,0.0,52,0.00,,---,0.00,232.00,VWS V14.00,2013-12-04 20:11:00,
2013-12-04 14:19:00,80.9,62.7,29.61,North,0,0.0,0.0,54,0.00,,---,0.00,118.00,VWS V14.00,2013-12-04 20:19:00,
2013-12-04 14:26:00,81.1,62.9,29.60,North,0,0.0,0.0,54,0.00,,---,0.00,107.00,VWS V14.00,2013-12-04 20:26:00,
2013-12-04 14:31:00,81.1,62.4,29.60,North,0,0.0,0.0,53,0.00,,---,0.00,127.00,VWS V14.00,2013-12-04 20:31:00,
2013-12-04 14:39:00,81.1,61.8,29.60,North,0,0.0,0.0,52,0.00,,---,0.00,44.00,VWS V14.00,2013-12-04 20:39:00,
2013-12-04 14:48:00,80.9,62.7,29.61,North,0,0.0,0.0,54,0.00,,---,0.00,146.00,VWS V14.00,2013-12-04 20:48:00,
2013-12-04 14:56:00,81.0,62.8,29.62,North,0,0.0,0.0,54,0.00,,---,0.00,195.00,VWS V14.00,2013-12-04 20:56:00,
2013-12-04 15:04:00,81.3,62.5,29.62,North,0,0.0,0.0,53,0.00,,---,0.00,174.00,VWS V14.00,2013-12-04 21:04:00,
2013-12-04 15:12:00,81.4,62.6,29.62,North,0,0.0,0.0,53,0.00,,---,0.00,91.00,VWS V14.00,2013-12-04 21:12:00,
2013-12-04 15:20:00,81.3,63.1,29.62,North,0,0.0,0.0,54,0.00,,---,0.00,49.00,VWS V14.00,2013-12-04 21:20:00,
2013-12-04 15:26:00,81.1,62.9,29.62,North,0,0.0,0.0,54,0.00,,---,0.00,142.00,VWS V14.00,2013-12-04 21:26:00,
2013-12-04 15:32:00,80.9,62.7,29.62,North,0,0.0,0.0,54,0.00,,---,0.00,49.00,VWS V14.00,2013-12-04 21:32:00,
2013-12-04 15:40:00,80.3,62.7,29.62,North,0,0.0,0.0,55,0.00,,---,0.00,35.00,VWS V14.00,2013-12-04 21:40:00,
2013-12-04 15:48:00,79.8,62.7,29.62,North,0,0.0,0.0,56,0.00,,---,0.00,33.00,VWS V14.00,2013-12-04 21:48:00,
2013-12-04 15:56:00,79.2,62.7,29.63,North,0,0.0,0.0,57,0.00,,---,0.00,26.00,VWS V14.00,2013-12-04 21:56:00,
2013-12-04 16:04:00,78.6,63.1,29.63,North,0,0.0,0.0,59,0.00,,---,0.00,21.00,VWS V14.00,2013-12-04 22:04:00,
2013-12-04 16:12:00,77.9,62.4,29.63,North,0,0.0,0.0,59,0.00,,---,0.00,19.00,VWS V14.00,2013-12-04 22:12:00,
2013-12-04 16:20:00,77.3,62.8,29.63,North,0,0.0,0.0,61,0.00,,---,0.00,25.00,VWS V14.00,2013-12-04 22:20:00,
2013-12-04 16:26:00,76.9,62.0,29.64,North,0,0.0,0.0,60,0.00,,---,0.00,26.00,VWS V14.00,2013-12-04 22:26:00,
2013-12-04 16:32:00,76.5,62.5,29.64,North,0,0.0,0.0,62,0.00,,---,0.00,21.00,VWS V14.00,2013-12-04 22:32:00,
2013-12-04 16:40:00,76.1,62.6,29.64,North,0,0.0,0.0,63,0.00,,---,0.00,16.00,VWS V14.00,2013-12-04 22:40:00,
2013-12-04 16:49:00,75.7,62.2,29.64,North,0,0.0,0.0,63,0.00,,---,0.00,12.00,VWS V14.00,2013-12-04 22:49:00,
2013-12-04 16:56:00,75.3,62.3,29.65,North,0,0.0,0.0,64,0.00,,---,0.00,7.00,VWS V14.00,2013-12-04 22:56:00,
2013-12-04 17:05:00,74.7,62.2,29.65,North,0,0.0,0.0,65,0.00,,---,0.00,5.00,VWS V14.00,2013-12-04 23:05:00,
2013-12-04 17:13:00,74.3,62.2,29.66,North,0,0.0,0.0,66,0.00,,---,0.00,0.00,VWS V14.00,2013-12-04 23:13:00,
2013-12-04 17:21:00,73.8,62.2,29.66,North,0,0.0,0.0,67,0.00,,---,0.00,0.00,VWS V14.00,2013-12-04 23:21:00,
2013-12-04 17:29:00,73.3,61.7,29.66,North,0,0.0,0.0,67,0.00,,---,0.00,0.00,VWS V14.00,2013-12-04 23:29:00,
2013-12-04 17:37:00,72.8,61.6,29.66,North,0,0.0,0.0,68,0.00,,---,0.00,0.00,VWS V14.00,2013-12-04 23:37:00,
2013-12-04 17:45:00,72.4,61.7,29.67,North,0,0.0,0.0,69,0.00,,---,0.00,0.00,VWS V14.00,2013-12-04 23:45:00,
2013-12-04 17:53:00,72.1,61.4,29.67,North,0,0.0,0.0,69,0.00,,---,0.00,0.00,VWS V14.00,2013-12-04 23:53:00,
2013-12-04 18:01:00,71.6,60.9,29.67,North,0,0.0,0.0,69,0.00,,---,0.00,0.00,VWS V14.00,2013-12-05 00:01:00,
2013-12-04 18:09:00,71.0,60.7,29.67,North,0,0.0,0.0,70,0.00,,---,0.00,0.00,VWS V14.00,2013-12-05 00:09:00,
2013-12-04 18:17:00,70.5,61.0,29.67,North,0,0.0,0.0,72,0.00,,---,0.00,0.00,VWS V14.00,2013-12-05 00:17:00,
2013-12-04 18:25:00,70.1,61.0,29.68,North,0,0.0,0.0,73,0.00,,---,0.00,0.00,VWS V14.00,2013-12-05 00:25:00,
2013-12-04 18:33:00,69.9,61.2,29.68,North,0,0.0,0.0,74,0.00,,---,0.00,0.00,VWS V14.00,2013-12-05 00:33:00,
2013-12-04 18:42:00,69.7,61.4,29.68,North,0,0.0,0.0,75,0.00,,---,0.00,0.00,VWS V14.00,2013-12-05 00:42:00,
2013-12-04 18:50:00,69.6,61.3,29.68,North,0,0.0,0.0,75,0.00,,---,0.00,0.00,VWS V14.00,2013-12-05 00:50:00,
2013-12-04 18:56:00,69.6,61.0,29.68,North,0,0.0,0.0,74,0.00,,---,0.00,0.00,VWS V14.00,2013-12-05 00:56:00,
2013-12-04 19:02:00,69.5,60.9,29.68,North,0,0.0,0.0,74,0.00,,---,0.00,0.00,VWS V14.00,2013-12-05 01:02:00,
2013-12-04 19:10:00,69.3,60.7,29.69,North,0,0.0,0.0,74,0.00,,---,0.00,0.00,VWS V14.00,2013-12-05 01:10:00,
2013-12-04 19:18:00,69.0,60.8,29.69,North,0,0.0,0.0,75,0.00,,---,0.00,0.00,VWS V14.00,2013-12-05 01:18:00,
2013-12-04 19:26:00,68.6,60.4,29.69,North,0,0.0,0.0,75,0.00,,---,0.00,0.00,VWS V14.00,2013-12-05 01:26:00,
2013-12-04 19:34:00,68.2,60.3,29.69,North,0,0.0,0.0,76,0.00,,---,0.00,0.00,VWS V14.00,2013-12-05 01:34:00,
2013-12-04 19:42:00,67.7,59.1,29.71,North,0,0.0,0.0,74,0.00,,---,0.00,0.00,VWS V14.00,2013-12-05 01:42:00,
2013-12-04 19:50:00,67.2,59.8,29.71,North,0,0.0,0.0,77,0.00,,---,0.00,0.00,VWS V14.00,2013-12-05 01:50:00,
2013-12-04 19:56:00,67.0,60.3,29.71,North,0,0.0,0.0,79,0.00,,---,0.00,0.00,VWS V14.00,2013-12-05 01:56:00,
2013-12-04 20:02:00,66.8,60.4,29.71,North,0,0.0,0.0,80,0.00,,---,0.00,0.00,VWS V14.00,2013-12-05 02:02:00,
2013-12-04 20:10:00,66.7,60.0,29.72,North,0,0.0,0.0,79,0.00,,---,0.00,0.00,VWS V14.00,2013-12-05 02:10:00,
2013-12-04 20:18:00,66.6,60.2,29.72,North,0,0.0,0.0,80,0.00,,---,0.00,0.00,VWS V14.00,2013-12-05 02:18:00,
2013-12-04 20:26:00,66.5,60.2,29.72,North,0,0.0,0.0,80,0.00,,---,0.00,0.00,VWS V14.00,2013-12-05 02:26:00,
2013-12-04 20:35:00,66.4,60.4,29.72,North,0,0.0,0.0,81,0.00,,---,0.00,0.00,VWS V14.00,2013-12-05 02:35:00,
2013-12-04 20:43:00,66.3,59.2,29.73,North,0,0.0,0.0,78,0.00,,---,0.00,0.00,VWS V14.00,2013-12-05 02:43:00,
2013-12-04 20:51:00,66.1,57.6,29.73,North,0,0.0,0.0,74,0.00,,---,0.00,0.00,VWS V14.00,2013-12-05 02:51:00,
2013-12-04 20:59:00,66.1,57.2,29.74,North,0,0.0,0.0,73,0.00,,---,0.00,0.00,VWS V14.00,2013-12-05 02:59:00,
2013-12-04 21:07:00,65.9,56.2,29.74,North,0,0.0,0.0,71,0.00,,---,0.00,0.00,VWS V14.00,2013-12-05 03:07:00,
2013-12-04 21:15:00,65.7,54.5,29.74,North,0,0.0,0.0,67,0.00,,---,0.00,0.00,VWS V14.00,2013-12-05 03:15:00,
2013-12-04 21:23:00,65.1,53.5,29.74,North,0,0.0,0.0,66,0.00,,---,0.00,0.00,VWS V14.00,2013-12-05 03:23:00,
2013-12-04 21:31:00,64.5,52.5,29.74,North,0,0.0,0.0,65,0.00,,---,0.00,0.00,VWS V14.00,2013-12-05 03:31:00,
2013-12-04 21:39:00,63.9,51.5,29.74,North,0,0.0,0.0,64,0.00,,---,0.00,0.00,VWS V14.00,2013-12-05 03:39:00,
2013-12-04 21:47:00,63.2,51.7,29.76,North,0,0.0,0.0,66,0.00,,---,0.00,0.00,VWS V14.00,2013-12-05 03:47:00,
2013-12-04 21:55:00,62.7,51.6,29.77,North,0,0.0,0.0,67,0.00,,---,0.00,0.00,VWS V14.00,2013-12-05 03:55:00,
2013-12-04 22:04:00,62.2,51.1,29.77,North,0,0.0,0.0,67,0.00,,---,0.00,0.00,VWS V14.00,2013-12-05 04:04:00,
2013-12-04 22:12:00,61.7,49.8,29.77,North,0,0.0,0.0,65,0.00,,---,0.00,0.00,VWS V14.00,2013-12-05 04:12:00,
2013-12-04 22:20:00,61.1,48.8,29.77,North,0,0.0,0.0,64,0.00,,---,0.00,0.00,VWS V14.00,2013-12-05 04:20:00,
2013-12-04 22:26:00,60.7,48.9,29.77,North,0,0.0,0.0,65,0.00,,---,0.00,0.00,VWS V14.00,2013-12-05 04:26:00,
2013-12-04 22:32:00,60.3,48.9,29.77,North,0,0.0,0.0,66,0.00,,---,0.00,0.00,VWS V14.00,2013-12-05 04:32:00,
2013-12-04 22:40:00,59.9,48.5,29.77,North,0,0.0,0.0,66,0.00,,---,0.00,0.00,VWS V14.00,2013-12-05 04:40:00,
2013-12-04 22:48:00,59.4,48.0,29.77,North,0,0.0,0.0,66,0.00,,---,0.00,0.00,VWS V14.00,2013-12-05 04:48:00,
2013-12-04 22:56:00,59.0,48.1,29.78,North,0,0.0,0.0,67,0.00,,---,0.00,0.00,VWS V14.00,2013-12-05 04:56:00,
2013-12-04 23:04:00,58.5,48.4,29.78,North,0,0.0,0.0,69,0.00,,---,0.00,0.00,VWS V14.00,2013-12-05 05:04:00,
2013-12-04 23:08:00,58.4,48.3,29.78,North,0,0.0,0.0,69,0.00,,---,0.00,0.00,VWS V14.00,2013-12-05 05:08:00,
2013-12-04 23:12:00,58.3,48.2,29.80,North,0,0.0,0.0,69,0.00,,---,0.00,0.00,VWS V14.00,2013-12-05 05:12:00,
2013-12-04 23:16:00,58.1,48.0,29.80,North,0,0.0,0.0,69,0.00,,---,0.00,0.00,VWS V14.00,2013-12-05 05:16:00,
2013-12-04 23:24:00,57.8,47.3,29.80,North,0,0.0,0.0,68,0.00,,---,0.00,0.00,VWS V14.00,2013-12-05 05:24:00,
2013-12-04 23:32:00,57.5,47.0,29.79,North,0,0.0,0.0,68,0.00,,---,0.00,0.00,VWS V14.00,2013-12-05 05:32:00,
2013-12-04 23:40:00,57.3,46.8,29.80,North,0,0.0,0.0,68,0.00,,---,0.00,0.00,VWS V14.00,2013-12-05 05:40:00,
2013-12-04 23:48:00,57.1,47.0,29.80,North,0,0.0,0.0,69,0.00,,---,0.00,0.00,VWS V14.00,2013-12-05 05:48:00,
2013-12-04 23:56:00,56.9,47.2,29.82,North,0,0.0,0.0,70,0.00,,---,0.00,0.00,VWS V14.00,2013-12-05 05:56:00,